createdAt,value
2018-11-02T00:02:07.734Z,56.63
2018-11-02T00:04:33.676Z,56.07
2018-11-02T00:06:59.765Z,56.99
2018-11-02T00:09:25.731Z,56.58
2018-11-02T00:11:51.691Z,56.68
2018-11-02T00:14:17.644Z,56.98
2018-11-02T00:16:43.646Z,56.99
2018-11-02T00:19:09.668Z,56.95
2018-11-02T00:21:35.619Z,56.92
2018-11-02T00:24:01.580Z,56.17
2018-11-02T00:26:27.538Z,56.28
2018-11-02T00:28:53.515Z,57.07
2018-11-02T00:31:19.563Z,56.55
2018-11-02T00:33:45.513Z,56.75
2018-11-02T00:36:11.464Z,56.48
2018-11-02T00:38:37.598Z,56.50
2018-11-02T00:41:03.551Z,56.49
2018-11-02T00:43:29.503Z,56.86
2018-11-02T00:45:55.467Z,56.81
2018-11-02T00:48:21.435Z,57.20
2018-11-02T00:50:47.423Z,56.45
2018-11-02T00:53:13.463Z,56.49
2018-11-02T00:55:39.423Z,57.18
2018-11-02T00:58:05.381Z,56.29
2018-11-02T01:00:31.331Z,56.85
2018-11-02T01:02:57.287Z,57.21
2018-11-02T01:05:23.273Z,56.66
2018-11-02T01:07:49.314Z,56.95
2018-11-02T01:10:15.285Z,56.44
2018-11-02T01:12:41.257Z,56.63
2018-11-02T01:15:07.216Z,56.82
2018-11-02T01:17:33.171Z,57.38
2018-11-02T01:19:59.122Z,57.04
2018-11-02T01:22:25.069Z,56.79
2018-11-02T01:24:51.025Z,56.84
2018-11-02T01:27:16.997Z,56.71
2018-11-02T01:29:42.952Z,56.86
2018-11-02T01:32:08.926Z,57.41
2018-11-02T01:34:34.880Z,56.55
2018-11-02T01:37:00.865Z,57.04
2018-11-02T01:39:26.901Z,57.11
2018-11-02T01:41:52.883Z,56.65
2018-11-02T01:44:18.837Z,56.88
2018-11-02T01:46:44.807Z,57.47
2018-11-02T01:49:10.763Z,57.26
2018-11-02T01:51:36.736Z,56.57
2018-11-02T01:54:02.681Z,56.81
2018-11-02T01:56:28.643Z,56.56
2018-11-02T01:58:54.629Z,56.83
2018-11-02T02:01:20.594Z,56.57
2018-11-02T02:03:46.536Z,57.15
2018-11-02T02:06:12.644Z,57.44
2018-11-02T02:08:38.596Z,57.04
2018-11-02T02:11:04.547Z,57.38
2018-11-02T02:13:30.608Z,57.19
2018-11-02T02:15:56.639Z,57.40
2018-11-02T02:18:22.527Z,57.06
2018-11-02T02:20:48.475Z,57.21
2018-11-02T02:23:14.447Z,56.44
2018-11-02T02:25:40.397Z,56.89
2018-11-02T02:28:06.396Z,56.22
2018-11-02T02:30:32.429Z,56.29
2018-11-02T02:32:58.406Z,56.49
2018-11-02T02:35:24.342Z,56.29
2018-11-02T02:37:50.307Z,56.02
2018-11-02T02:40:16.260Z,56.60
2018-11-02T02:42:42.277Z,56.17
2018-11-02T02:45:08.253Z,56.33
2018-11-02T02:47:34.227Z,56.16
2018-11-02T02:50:00.203Z,55.89
2018-11-02T02:52:26.170Z,56.29
2018-11-02T02:54:52.163Z,55.82
2018-11-02T02:57:18.116Z,55.89
2018-11-02T02:59:44.144Z,56.46
2018-11-02T03:02:10.050Z,55.86
2018-11-02T03:04:36.013Z,55.84
2018-11-02T03:07:01.973Z,55.98
2018-11-02T03:09:28.020Z,55.43
2018-11-02T03:11:53.972Z,55.38
2018-11-02T03:14:19.948Z,55.50
2018-11-02T03:16:45.904Z,55.72
2018-11-02T03:19:11.856Z,55.95
2018-11-02T03:21:38.190Z,55.23
2018-11-02T03:24:04.144Z,55.37
2018-11-02T03:26:30.100Z,55.39
2018-11-02T03:28:56.147Z,55.89
2018-11-02T03:31:22.103Z,55.34
2018-11-02T03:33:48.048Z,55.55
2018-11-02T03:36:14.028Z,55.58
2018-11-02T03:38:39.987Z,55.48
2018-11-02T03:41:05.954Z,55.46
2018-11-02T03:43:31.946Z,55.68
2018-11-02T03:45:57.862Z,54.68
2018-11-02T03:48:23.824Z,54.68
2018-11-02T03:50:49.773Z,55.13
2018-11-02T03:53:15.891Z,54.59
2018-11-02T03:55:42.326Z,54.86
2018-11-02T03:58:08.405Z,55.45
2018-11-02T04:00:34.705Z,54.80
2018-11-02T04:03:00.665Z,55.00
2018-11-02T04:05:26.625Z,55.08
2018-11-02T04:07:52.598Z,55.04
2018-11-02T04:10:18.570Z,54.75
2018-11-02T04:12:44.525Z,54.36
2018-11-02T04:15:10.484Z,54.59
2018-11-02T04:17:36.427Z,55.21
2018-11-02T04:20:02.388Z,54.41
2018-11-02T04:22:28.431Z,54.88
2018-11-02T04:24:54.373Z,54.81
2018-11-02T04:27:20.330Z,54.98
2018-11-02T04:29:46.307Z,54.20
2018-11-02T04:32:12.264Z,54.70
2018-11-02T04:34:38.225Z,54.83
2018-11-02T04:37:04.243Z,54.65
2018-11-02T04:39:30.199Z,55.02
2018-11-02T04:41:56.197Z,54.73
2018-11-02T04:44:22.134Z,54.61
2018-11-02T04:46:48.078Z,54.42
2018-11-02T04:49:14.065Z,54.06
2018-11-02T04:51:40.018Z,54.09
2018-11-02T04:54:05.982Z,54.76
2018-11-02T04:56:31.958Z,54.55
2018-11-02T04:58:57.929Z,54.47
2018-11-02T05:01:23.872Z,54.67
2018-11-02T05:03:49.816Z,54.65
2018-11-02T05:06:15.882Z,54.20
2018-11-02T05:08:41.783Z,54.47
2018-11-02T05:11:07.749Z,54.52
2018-11-02T05:13:33.712Z,54.52
2018-11-02T05:15:59.664Z,54.63
2018-11-02T05:18:25.631Z,54.83
2018-11-02T05:20:51.582Z,54.20
2018-11-02T05:23:17.540Z,54.71
2018-11-02T05:25:43.523Z,54.68
2018-11-02T05:28:09.527Z,54.64
2018-11-02T05:30:35.505Z,54.53
2018-11-02T05:33:01.463Z,54.04
2018-11-02T05:35:27.447Z,54.63
2018-11-02T05:37:53.461Z,54.54
2018-11-02T05:40:19.440Z,53.98
2018-11-02T05:42:45.526Z,54.31
2018-11-02T05:45:11.539Z,54.79
2018-11-02T05:47:37.507Z,54.17
2018-11-02T05:50:03.459Z,54.32
2018-11-02T05:52:29.453Z,54.66
2018-11-02T05:54:55.401Z,54.31
2018-11-02T05:57:21.353Z,55.04
2018-11-02T05:59:47.336Z,54.93
2018-11-02T06:02:13.282Z,54.42
2018-11-02T06:04:39.276Z,54.41
2018-11-02T06:07:05.237Z,54.24
2018-11-02T06:09:31.213Z,54.43
2018-11-02T06:11:57.260Z,54.15
2018-11-02T06:14:23.292Z,53.85
2018-11-02T06:16:49.435Z,54.42
2018-11-02T06:19:15.322Z,53.97
2018-11-02T06:21:41.265Z,54.29
2018-11-02T06:24:07.221Z,53.71
2018-11-02T06:26:33.165Z,54.01
2018-11-02T06:28:59.183Z,54.52
2018-11-02T06:31:25.075Z,54.15
2018-11-02T06:33:51.077Z,54.18
2018-11-02T06:36:16.964Z,53.99
2018-11-02T06:38:42.926Z,53.79
2018-11-02T06:41:08.871Z,54.54
2018-11-02T06:43:34.891Z,53.58
2018-11-02T06:46:00.894Z,53.96
2018-11-02T06:48:27.010Z,54.45
2018-11-02T06:50:52.998Z,54.21
2018-11-02T06:53:18.938Z,54.19
2018-11-02T06:55:44.900Z,53.33
2018-11-02T06:58:10.869Z,54.05
2018-11-02T07:00:36.993Z,54.46
2018-11-02T07:03:02.920Z,53.61
2018-11-02T07:05:28.879Z,54.13
2018-11-02T07:07:55.019Z,53.51
2018-11-02T07:10:20.912Z,53.95
2018-11-02T07:12:46.889Z,54.39
2018-11-02T07:15:12.885Z,54.04
2018-11-02T07:17:38.888Z,53.60
2018-11-02T07:20:04.903Z,53.91
2018-11-02T07:22:30.884Z,54.31
2018-11-02T07:24:56.891Z,53.51
2018-11-02T07:27:22.837Z,54.68
2018-11-02T07:29:48.809Z,54.32
2018-11-02T07:32:14.766Z,53.86
2018-11-02T07:34:40.732Z,54.23
2018-11-02T07:37:06.703Z,53.95
2018-11-02T07:39:32.667Z,54.06
2018-11-02T07:41:58.632Z,54.76
2018-11-02T07:44:24.587Z,54.72
2018-11-02T07:46:50.540Z,54.86
2018-11-02T07:49:16.568Z,54.78
2018-11-02T07:51:42.467Z,54.80
2018-11-02T07:54:08.420Z,54.82
2018-11-02T07:56:34.536Z,54.23
2018-11-02T07:59:00.503Z,55.10
2018-11-02T08:01:26.467Z,54.59
2018-11-02T08:03:52.425Z,54.89
2018-11-02T08:06:18.385Z,54.35
2018-11-02T08:08:44.340Z,55.07
2018-11-02T08:11:10.317Z,55.02
2018-11-02T08:13:36.243Z,54.28
2018-11-02T08:16:02.204Z,54.79
2018-11-02T08:18:28.168Z,54.84
2018-11-02T08:20:54.178Z,54.31
2018-11-02T08:23:20.125Z,54.91
2018-11-02T08:25:46.074Z,54.83
2018-11-02T08:28:12.108Z,55.28
2018-11-02T08:30:38.051Z,55.05
2018-11-02T08:33:04.004Z,54.83
2018-11-02T08:35:29.984Z,55.41
2018-11-02T08:37:56.021Z,55.48
2018-11-02T08:40:22.001Z,54.88
2018-11-02T08:42:47.979Z,54.53
2018-11-02T08:45:13.936Z,55.56
2018-11-02T08:47:39.911Z,55.23
2018-11-02T08:50:05.874Z,55.00
2018-11-02T08:52:31.824Z,54.87
2018-11-02T08:54:57.784Z,55.04
2018-11-02T08:57:23.767Z,54.69
2018-11-02T08:59:49.804Z,55.57
2018-11-02T09:02:15.681Z,55.47
2018-11-02T09:04:41.825Z,55.54
2018-11-02T09:07:07.788Z,54.98
2018-11-02T09:09:33.806Z,54.86
2018-11-02T09:11:59.775Z,55.40
2018-11-02T09:14:25.724Z,55.36
2018-11-02T09:16:51.748Z,54.95
2018-11-02T09:19:17.742Z,55.47
2018-11-02T09:21:43.675Z,55.69
2018-11-02T09:24:09.651Z,55.06
2018-11-02T09:26:35.628Z,54.97
2018-11-02T09:29:01.706Z,55.34
2018-11-02T09:31:27.670Z,55.13
2018-11-02T09:33:53.611Z,55.50
2018-11-02T09:36:19.862Z,55.53
2018-11-02T09:38:45.814Z,55.12
2018-11-02T09:41:11.792Z,55.28
2018-11-02T09:43:37.747Z,54.58
2018-11-02T09:46:03.723Z,55.52
2018-11-02T09:48:29.729Z,55.58
2018-11-02T09:50:55.681Z,55.67
2018-11-02T09:53:21.699Z,54.61
2018-11-02T09:55:47.655Z,54.69
2018-11-02T09:58:13.606Z,55.30
2018-11-02T10:00:39.680Z,55.20
2018-11-02T10:03:05.713Z,54.93
2018-11-02T10:05:31.664Z,54.64
2018-11-02T10:07:57.667Z,55.43
2018-11-02T10:10:23.659Z,54.97
2018-11-02T10:12:49.648Z,54.96
2018-11-02T10:15:16.326Z,54.96
2018-11-02T10:17:42.284Z,55.05
2018-11-02T10:20:08.236Z,54.84
2018-11-02T10:22:34.397Z,54.88
2018-11-02T10:25:00.343Z,55.35
2018-11-02T10:27:26.325Z,54.30
2018-11-02T10:29:52.308Z,55.00
2018-11-02T10:32:18.251Z,54.61
2018-11-02T10:34:44.209Z,54.66
2018-11-02T10:37:10.192Z,55.04
2018-11-02T10:39:36.152Z,54.98
2018-11-02T10:42:02.103Z,54.66
2018-11-02T10:44:28.233Z,55.08
2018-11-02T10:46:54.104Z,54.62
2018-11-02T10:49:20.100Z,54.60
2018-11-02T10:51:46.103Z,54.75
2018-11-02T10:54:12.059Z,54.33
2018-11-02T10:56:38.078Z,54.81
2018-11-02T10:59:04.042Z,54.37
2018-11-02T11:01:30.087Z,54.89
2018-11-02T11:03:56.641Z,54.95
2018-11-02T11:06:22.615Z,55.07
2018-11-02T11:08:48.574Z,54.47
2018-11-02T11:11:14.710Z,54.58
2018-11-02T11:13:41.044Z,54.75
2018-11-02T11:16:06.777Z,54.19
2018-11-02T11:18:32.745Z,54.97
2018-11-02T11:20:58.707Z,54.66
2018-11-02T11:23:24.747Z,54.61
2018-11-02T11:25:50.707Z,55.27
2018-11-02T11:28:16.887Z,55.05
2018-11-02T11:30:42.856Z,54.97
2018-11-02T11:33:08.812Z,54.67
2018-11-02T11:35:34.780Z,54.88
2018-11-02T11:38:00.729Z,54.64
2018-11-02T11:40:26.712Z,54.75
2018-11-02T11:42:52.681Z,54.79
2018-11-02T11:45:18.669Z,54.99
2018-11-02T11:47:44.641Z,55.35
2018-11-02T11:50:10.642Z,55.54
2018-11-02T11:52:36.571Z,54.84
2018-11-02T11:55:02.523Z,54.80
2018-11-02T11:57:28.460Z,54.94
2018-11-02T11:59:54.536Z,54.55
2018-11-02T12:02:20.545Z,54.26
2018-11-02T12:04:46.535Z,54.97
2018-11-02T12:07:12.727Z,54.72
2018-11-02T12:09:38.676Z,54.47
2018-11-02T12:12:04.659Z,53.96
2018-11-02T12:14:30.611Z,54.26
2018-11-02T12:16:56.579Z,53.79
2018-11-02T12:19:22.532Z,54.22
2018-11-02T12:21:48.548Z,54.28
2018-11-02T12:24:14.471Z,54.07
2018-11-02T12:26:40.442Z,54.41
2018-11-02T12:29:06.440Z,54.09
2018-11-02T12:31:32.648Z,54.31
2018-11-02T12:33:58.633Z,54.15
2018-11-02T12:36:24.591Z,54.13
2018-11-02T12:38:50.559Z,53.76
2018-11-02T12:41:16.510Z,53.77
2018-11-02T12:43:42.609Z,53.69
2018-11-02T12:46:08.463Z,53.62
2018-11-02T12:48:34.550Z,53.34
2018-11-02T12:51:00.437Z,53.86
2018-11-02T12:53:26.409Z,53.63
2018-11-02T12:55:52.387Z,53.89
2018-11-02T12:58:18.344Z,53.69
2018-11-02T13:00:44.331Z,53.77
2018-11-02T13:03:10.288Z,54.00
2018-11-02T13:05:36.263Z,53.65
2018-11-02T13:08:02.257Z,54.29
2018-11-02T13:10:28.220Z,53.97
2018-11-02T13:12:54.180Z,53.61
2018-11-02T13:15:20.138Z,53.53
2018-11-02T13:17:46.092Z,54.13
2018-11-02T13:20:12.152Z,53.83
2018-11-02T13:22:38.042Z,53.47
2018-11-02T13:25:04.035Z,53.44
2018-11-02T13:27:29.995Z,54.08
2018-11-02T13:29:55.997Z,53.46
2018-11-02T13:32:21.893Z,53.10
2018-11-02T13:34:47.857Z,53.97
2018-11-02T13:37:13.861Z,53.48
2018-11-02T13:39:39.774Z,53.53
2018-11-02T13:42:05.736Z,53.75
2018-11-02T13:44:31.691Z,53.54
2018-11-02T13:46:57.664Z,53.36
2018-11-02T13:49:23.637Z,52.64
2018-11-02T13:51:49.649Z,53.50
2018-11-02T13:54:15.641Z,53.39
2018-11-02T13:56:41.611Z,53.01
2018-11-02T13:59:07.731Z,53.88
2018-11-02T14:01:33.789Z,53.23
2018-11-02T14:03:59.734Z,53.09
2018-11-02T14:06:25.704Z,53.13
2018-11-02T14:08:51.654Z,53.31
2018-11-02T14:11:17.627Z,53.60
2018-11-02T14:13:43.604Z,53.34
2018-11-02T14:16:09.597Z,53.03
2018-11-02T14:18:35.682Z,53.44
2018-11-02T14:21:03.528Z,52.99
2018-11-02T14:23:29.559Z,52.74
2018-11-02T14:25:55.472Z,53.12
2018-11-02T14:28:21.433Z,52.56
2018-11-02T14:30:47.589Z,52.31
2018-11-02T14:33:13.602Z,53.10
2018-11-02T14:35:39.622Z,52.67
2018-11-02T14:38:05.675Z,52.62
2018-11-02T14:40:31.768Z,52.65
2018-11-02T14:42:57.729Z,52.58
2018-11-02T14:45:23.768Z,52.22
2018-11-02T14:47:49.721Z,52.04
2018-11-02T14:50:15.700Z,52.71
2018-11-02T14:52:41.665Z,52.46
2018-11-02T14:55:07.660Z,51.95
2018-11-02T14:57:33.609Z,51.88
2018-11-02T14:59:59.562Z,52.13
2018-11-02T15:02:25.545Z,52.05
2018-11-02T15:04:51.618Z,51.97
2018-11-02T15:07:17.590Z,52.40
2018-11-02T15:09:43.609Z,51.92
2018-11-02T15:12:09.516Z,51.99
2018-11-02T15:14:35.471Z,52.09
2018-11-02T15:17:01.528Z,51.75
2018-11-02T15:19:27.695Z,52.09
2018-11-02T15:21:53.663Z,52.14
2018-11-02T15:24:19.609Z,52.06
2018-11-02T15:26:45.619Z,51.52
2018-11-02T15:29:11.569Z,52.00
2018-11-02T15:31:37.534Z,52.57
2018-11-02T15:34:03.498Z,52.00
2018-11-02T15:36:29.460Z,51.70
2018-11-02T15:38:55.439Z,52.35
2018-11-02T15:41:21.383Z,52.25
2018-11-02T15:43:47.351Z,51.53
2018-11-02T15:46:13.314Z,52.40
2018-11-02T15:48:39.347Z,52.44
2018-11-02T15:51:05.318Z,51.89
2018-11-02T15:53:31.398Z,52.12
2018-11-02T15:55:57.280Z,51.85
2018-11-02T15:58:23.316Z,51.80
2018-11-02T16:00:49.313Z,52.11
2018-11-02T16:03:15.352Z,51.62
2018-11-02T16:05:41.487Z,51.75
2018-11-02T16:08:07.443Z,51.73
2018-11-02T16:10:33.399Z,51.27
2018-11-02T16:12:59.372Z,52.39
2018-11-02T16:15:25.396Z,52.21
2018-11-02T16:17:51.354Z,51.86
2018-11-02T16:20:17.315Z,51.34
2018-11-02T16:22:43.291Z,52.16
2018-11-02T16:25:09.275Z,51.98
2018-11-02T16:27:35.212Z,52.33
2018-11-02T16:30:01.246Z,51.86
2018-11-02T16:32:27.191Z,52.42
2018-11-02T16:34:53.204Z,51.95
2018-11-02T16:37:19.171Z,51.97
2018-11-02T16:39:45.129Z,52.16
2018-11-02T16:42:11.399Z,51.62
2018-11-02T16:44:37.490Z,52.00
2018-11-02T16:47:03.404Z,52.23
2018-11-02T16:49:29.371Z,52.34
2018-11-02T16:51:55.342Z,52.05
2018-11-02T16:54:21.431Z,51.89
2018-11-02T16:56:47.273Z,52.45
2018-11-02T16:59:13.313Z,52.54
2018-11-02T17:01:39.414Z,52.37
2018-11-02T17:04:05.414Z,52.58
2018-11-02T17:06:31.325Z,52.01
2018-11-02T17:08:57.345Z,52.08
2018-11-02T17:11:23.413Z,52.11
2018-11-02T17:13:49.352Z,52.68
2018-11-02T17:16:15.304Z,52.61
2018-11-02T17:18:41.319Z,51.67
2018-11-02T17:21:07.300Z,52.58
2018-11-02T17:23:33.266Z,52.00
2018-11-02T17:25:59.248Z,52.18
2018-11-02T17:28:25.231Z,52.04
2018-11-02T17:30:51.264Z,51.87
2018-11-02T17:33:17.381Z,52.43
2018-11-02T17:35:43.433Z,51.82
2018-11-02T17:38:09.424Z,51.62
2018-11-02T17:40:35.377Z,52.21
2018-11-02T17:43:01.358Z,51.87
2018-11-02T17:45:27.313Z,51.89
2018-11-02T17:47:53.379Z,51.98
2018-11-02T17:50:19.381Z,51.98
2018-11-02T17:52:45.283Z,51.81
2018-11-02T17:55:11.375Z,52.31
2018-11-02T17:57:37.393Z,52.25
2018-11-02T18:00:03.466Z,51.84
2018-11-02T18:02:29.424Z,52.32
2018-11-02T18:04:55.483Z,52.29
2018-11-02T18:07:21.568Z,52.27
2018-11-02T18:09:47.561Z,52.57
2018-11-02T18:12:13.557Z,51.58
2018-11-02T18:14:39.656Z,52.26
2018-11-02T18:17:05.619Z,52.05
2018-11-02T18:19:31.613Z,51.94
2018-11-02T18:21:57.599Z,51.95
2018-11-02T18:24:23.645Z,52.37
2018-11-02T18:26:49.797Z,52.32
2018-11-02T18:29:15.863Z,51.60
2018-11-02T18:31:42.738Z,52.17
2018-11-02T18:34:08.744Z,52.07
2018-11-02T18:36:34.711Z,52.17
2018-11-02T18:39:00.685Z,52.16
2018-11-02T18:41:26.657Z,52.11
2018-11-02T18:43:52.667Z,51.53
2018-11-02T18:46:18.644Z,51.99
2018-11-02T18:48:44.632Z,52.15
2018-11-02T18:51:10.649Z,51.83
2018-11-02T18:53:36.681Z,52.27
2018-11-02T18:56:02.692Z,52.06
2018-11-02T18:58:28.740Z,52.00
2018-11-02T19:00:54.761Z,51.30
2018-11-02T19:03:20.804Z,51.86
2018-11-02T19:05:46.899Z,51.52
2018-11-02T19:08:12.768Z,51.14
2018-11-02T19:10:38.735Z,51.69
2018-11-02T19:13:04.837Z,51.43
2018-11-02T19:15:30.768Z,51.59
2018-11-02T19:17:56.753Z,51.46
2018-11-02T19:20:22.737Z,52.05
2018-11-02T19:22:48.767Z,51.06
2018-11-02T19:25:14.681Z,51.70
2018-11-02T19:27:40.740Z,51.59
2018-11-02T19:30:06.639Z,51.21
2018-11-02T19:32:32.763Z,51.50
2018-11-02T19:34:58.994Z,51.28
2018-11-02T19:37:24.656Z,51.08
2018-11-02T19:39:50.614Z,51.32
2018-11-02T19:42:16.589Z,51.06
2018-11-02T19:44:42.580Z,50.76
2018-11-02T19:47:08.591Z,50.89
2018-11-02T19:49:34.638Z,50.71
2018-11-02T19:52:00.597Z,51.38
2018-11-02T19:54:26.724Z,51.11
2018-11-02T19:56:52.680Z,50.86
2018-11-02T19:59:18.633Z,50.85
2018-11-02T20:01:44.650Z,50.97
2018-11-02T20:04:10.662Z,51.23
2018-11-02T20:06:36.644Z,50.69
2018-11-02T20:09:02.640Z,50.97
2018-11-02T20:11:28.685Z,50.72
2018-11-02T20:13:54.704Z,50.36
2018-11-02T20:16:20.656Z,50.59
2018-11-02T20:18:46.609Z,51.12
2018-11-02T20:21:12.676Z,50.85
2018-11-02T20:23:38.670Z,50.42
2018-11-02T20:26:04.705Z,50.56
2018-11-02T20:28:30.576Z,51.22
2018-11-02T20:30:56.606Z,50.81
2018-11-02T20:33:22.569Z,50.74
2018-11-02T20:35:48.567Z,50.54
2018-11-02T20:38:14.547Z,50.23
2018-11-02T20:40:40.545Z,50.23
2018-11-02T20:43:06.542Z,50.46
2018-11-02T20:45:32.507Z,50.39
2018-11-02T20:47:58.471Z,50.35
2018-11-02T20:50:24.411Z,50.74
2018-11-02T20:52:50.469Z,50.05
2018-11-02T20:55:16.578Z,50.21
2018-11-02T20:57:42.552Z,50.41
2018-11-02T21:00:08.533Z,50.48
2018-11-02T21:02:34.598Z,50.23
2018-11-02T21:05:00.538Z,50.14
2018-11-02T21:07:26.519Z,50.38
2018-11-02T21:09:52.535Z,50.58
2018-11-02T21:12:18.507Z,50.58
2018-11-02T21:14:44.526Z,50.14
2018-11-02T21:17:10.494Z,50.04
2018-11-02T21:19:36.586Z,50.16
2018-11-02T21:22:02.723Z,50.06
2018-11-02T21:24:28.634Z,50.09
2018-11-02T21:26:54.600Z,50.39
2018-11-02T21:29:20.560Z,50.34
2018-11-02T21:31:46.611Z,49.83
2018-11-02T21:34:12.595Z,50.12
2018-11-02T21:36:38.578Z,49.76
2018-11-02T21:39:04.568Z,49.56
2018-11-02T21:41:30.541Z,49.88
2018-11-02T21:43:56.657Z,49.43
2018-11-02T21:46:22.625Z,49.76
2018-11-02T21:48:48.612Z,49.50
2018-11-02T21:51:14.567Z,50.34
2018-11-02T21:53:40.571Z,50.66
2018-11-02T21:56:06.523Z,50.11
2018-11-02T21:58:32.605Z,50.54
2018-11-02T22:00:58.476Z,49.97
2018-11-02T22:03:24.476Z,49.75
2018-11-02T22:05:50.567Z,50.19
2018-11-02T22:08:16.590Z,49.44
2018-11-02T22:10:42.652Z,50.30
2018-11-02T22:13:08.657Z,49.54
2018-11-02T22:15:34.728Z,50.05
2018-11-02T22:18:00.703Z,49.34
2018-11-02T22:20:26.648Z,49.66
2018-11-02T22:22:52.613Z,49.43
2018-11-02T22:25:18.568Z,50.14
2018-11-02T22:27:44.537Z,49.80
2018-11-02T22:30:10.608Z,49.22
2018-11-02T22:32:36.576Z,49.45
2018-11-02T22:35:02.544Z,50.09
2018-11-02T22:37:28.529Z,49.98
2018-11-02T22:39:54.525Z,49.47
2018-11-02T22:42:20.540Z,48.98
2018-11-02T22:44:46.503Z,49.20
2018-11-02T22:47:12.475Z,48.88
2018-11-02T22:49:38.444Z,48.74
2018-11-02T22:52:04.416Z,49.21
2018-11-02T22:54:30.402Z,49.57
2018-11-02T22:56:56.358Z,49.40
2018-11-02T22:59:22.318Z,49.43
2018-11-02T23:01:48.305Z,49.60
2018-11-02T23:04:14.296Z,49.22
2018-11-02T23:06:40.312Z,49.63
2018-11-02T23:09:06.310Z,49.83
2018-11-02T23:11:32.569Z,49.53
2018-11-02T23:13:58.520Z,49.23
2018-11-02T23:16:24.517Z,48.96
2018-11-02T23:18:50.468Z,49.49
2018-11-02T23:21:16.505Z,49.78
2018-11-02T23:23:42.473Z,48.91
2018-11-02T23:26:08.455Z,49.09
2018-11-02T23:28:34.431Z,49.10
2018-11-02T23:31:00.493Z,48.96
2018-11-02T23:33:26.435Z,49.00
2018-11-02T23:35:52.591Z,48.89
2018-11-02T23:38:18.559Z,48.75
2018-11-02T23:40:44.518Z,49.17
2018-11-02T23:43:10.489Z,48.72
2018-11-02T23:45:36.531Z,49.04
2018-11-02T23:48:02.588Z,49.15
2018-11-02T23:50:28.556Z,49.52
2018-11-02T23:52:54.706Z,49.33
2018-11-02T23:55:20.654Z,49.25
2018-11-02T23:57:46.710Z,49.73
